Terminal Aerodrome Forecast
Issued by NWS

Home | Current Version | Previous Version | Text Only | Print | Product List | Glossary On
Versions: 1 2 3 4 5 6 7 8 9 10 11 12 13 14
000
FTUS42 KRAH 182340
TAFINT
TAF
KINT 182340Z 1900/1924 22010G19KT P6SM OVC040
     FM190400 22017G26KT P6SM VCSH OVC030
      TEMPO 1905/1908 3SM -SHRA OVC015
     FM190900 28010KT P6SM FEW040
     FM191500 31012G21KT P6SM FEW250
     FM192300 30009KT P6SM SKC=

USA.gov is the U.S. government's official web portal to all federal, state and local government web resources and services.